Time;durP1;ratioP1;P1;durP2;ratioP2;P2;SDS_P1;SDS_P2;PMS_P1;PMS_P2;Temp;Humidity;BMP_temperature;BMP_pressure;BME280_temperature;BME280_humidity;BME280_pressure;Samples;Min_cycle;Max_cycle;Signal;HPM_P1;HPM_P2
2024/04/23 00:00:47;;;;;;;8.18;6.55;;;1.80;97.50;;;;;;5485218;26;20009;-73
2024/04/23 00:03:14;;;;;;;7.75;6.95;;;1.80;97.60;;;;;;5453294;26;20432;-73
2024/04/23 00:05:41;;;;;;;8.75;7.78;;;1.70;97.70;;;;;;5475093;26;20013;-73
2024/04/23 00:08:08;;;;;;;8.85;7.97;;;1.70;97.90;;;;;;5489004;26;20010;-73
2024/04/23 00:10:36;;;;;;;8.05;7.25;;;1.70;98.00;;;;;;5488168;26;20051;-73
2024/04/23 00:13:03;;;;;;;8.55;7.10;;;1.60;98.10;;;;;;5488262;26;20066;-73
2024/04/23 00:15:30;;;;;;;10.00;9.10;;;1.60;98.20;;;;;;5458089;26;20006;-73
2024/04/23 00:17:57;;;;;;;11.63;10.73;;;1.60;98.30;;;;;;5487699;26;20031;-73
2024/04/23 00:20:24;;;;;;;10.75;9.55;;;1.60;98.50;;;;;;5457947;26;20497;-73
2024/04/23 00:22:51;;;;;;;8.95;8.10;;;1.50;98.60;;;;;;5489691;26;20009;-73
2024/04/23 00:25:18;;;;;;;11.45;10.52;;;1.60;98.80;;;;;;5487976;26;19998;-73
2024/04/23 00:27:45;;;;;;;10.07;9.07;;;1.50;98.80;;;;;;5489949;26;19998;-73
2024/04/23 00:30:12;;;;;;;10.50;9.70;;;1.50;98.90;;;;;;5518498;26;20070;-73
2024/04/23 00:32:39;;;;;;;9.65;8.65;;;1.50;99.10;;;;;;5489713;26;19998;-73
2024/04/23 00:35:06;;;;;;;9.55;8.20;;;1.50;99.20;;;;;;5489399;26;20013;-73
2024/04/23 00:37:34;;;;;;;10.55;8.40;;;1.50;99.30;;;;;;5488176;26;19999;-73
2024/04/23 00:40:01;;;;;;;10.00;8.75;;;1.50;99.50;;;;;;5489702;26;20450;-73
2024/04/23 00:42:28;;;;;;;9.65;8.70;;;1.50;99.70;;;;;;5488019;26;19994;-73
2024/04/23 00:44:55;;;;;;;8.02;6.82;;;1.50;99.70;;;;;;5518230;26;20052;-73
2024/04/23 00:47:22;;;;;;;10.35;7.55;;;1.50;99.80;;;;;;5518198;26;20435;-73
2024/04/23 00:49:50;;;;;;;11.75;10.65;;;1.50;99.80;;;;;;5488085;26;20006;-73
2024/04/23 00:52:19;;;;;;;8.65;7.68;;;1.50;99.90;;;;;;5489349;26;19994;-73
2024/04/23 00:54:48;;;;;;;12.25;10.95;;;1.40;99.90;;;;;;5487610;26;20078;-73
2024/04/23 00:57:16;;;;;;;13.15;12.20;;;1.40;99.90;;;;;;5517734;26;19998;-73
2024/04/23 00:59:43;;;;;;;8.00;7.10;;;1.40;99.90;;;;;;5487625;26;20036;-73
2024/04/23 01:02:10;;;;;;;10.15;8.02;;;1.40;99.90;;;;;;5487136;26;20010;-73
2024/04/23 01:04:56;;;;;;;13.45;12.40;;;1.40;99.90;;;;;;5490650;26;20082;-73
2024/04/23 01:07:24;;;;;;;11.73;9.10;;;1.40;99.90;;;;;;5489339;26;20316;-74
2024/04/23 01:09:51;;;;;;;10.10;9.10;;;1.40;99.90;;;;;;5489241;26;20033;-73
2024/04/23 01:12:18;;;;;;;11.77;10.50;;;1.40;99.90;;;;;;5488896;26;19994;-73
2024/04/23 01:14:46;;;;;;;9.13;8.25;;;1.40;99.90;;;;;;5489281;26;20483;-73
2024/04/23 01:17:15;;;;;;;10.27;9.25;;;1.50;99.90;;;;;;5488974;26;20327;-74
2024/04/23 01:19:52;;;;;;;11.05;9.90;;;1.40;99.90;;;;;;5487500;26;20002;-73
2024/04/23 01:22:27;;;;;;;;;;;1.30;99.90;;;;;;5489930;26;19994;-74
2024/04/23 01:25:00;;;;;;;10.48;9.48;;;1.30;99.90;;;;;;5487385;26;19931;-73
2024/04/23 01:27:28;;;;;;;12.32;11.02;;;1.20;99.90;;;;;;5489603;26;20009;-73
2024/04/23 01:29:56;;;;;;;9.80;8.45;;;1.20;99.90;;;;;;5487575;26;19994;-73
2024/04/23 01:32:25;;;;;;;10.68;8.18;;;1.20;99.90;;;;;;5487115;26;20320;-74
2024/04/23 01:34:53;;;;;;;11.32;10.13;;;1.20;99.90;;;;;;5487331;26;19998;-73
2024/04/23 01:37:24;;;;;;;8.75;7.00;;;1.20;99.90;;;;;;5488790;26;20168;-73
2024/04/23 01:39:53;;;;;;;9.82;8.90;;;1.10;99.90;;;;;;5489026;26;20010;-74
2024/04/23 01:42:20;;;;;;;8.88;7.60;;;1.10;99.90;;;;;;5488712;26;19998;-73
2024/04/23 01:44:48;;;;;;;10.25;9.27;;;1.00;99.90;;;;;;5488992;26;20010;-73
2024/04/23 01:47:15;;;;;;;9.20;8.30;;;1.00;99.90;;;;;;5486857;26;20006;-74
2024/04/23 01:49:43;;;;;;;8.68;7.90;;;1.00;99.90;;;;;;5517495;26;20352;-73
2024/04/23 01:52:11;;;;;;;7.68;6.93;;;0.90;99.90;;;;;;5486607;26;20031;-74
2024/04/23 01:54:38;;;;;;;9.65;8.38;;;0.80;99.90;;;;;;5487128;26;20005;-74
2024/04/23 01:57:07;;;;;;;9.05;7.95;;;0.70;99.90;;;;;;5486932;26;19994;-73
2024/04/23 01:59:40;;;;;;;10.00;9.10;;;0.70;99.90;;;;;;5488510;26;20070;-73
2024/04/23 02:02:08;;;;;;;11.23;9.35;;;0.70;99.90;;;;;;5517432;26;19998;-73
2024/04/23 02:04:35;;;;;;;10.60;9.52;;;0.60;99.90;;;;;;5486899;26;20324;-73
2024/04/23 02:07:03;;;;;;;8.25;7.07;;;0.50;99.90;;;;;;5487108;26;20009;-73
2024/04/23 02:09:30;;;;;;;9.13;5.75;;;0.40;99.90;;;;;;5517818;26;19995;-73
2024/04/23 02:11:59;;;;;;;10.05;9.27;;;0.40;99.90;;;;;;5486649;26;20074;-73
2024/04/23 02:14:26;;;;;;;8.70;7.80;;;0.40;99.90;;;;;;5486348;26;19998;-73
2024/04/23 02:16:53;;;;;;;11.50;10.45;;;0.30;99.90;;;;;;5486765;26;20078;-73
2024/04/23 02:19:23;;;;;;;7.80;7.03;;;0.30;99.90;;;;;;5487931;26;20034;-73
2024/04/23 02:21:50;;;;;;;10.43;9.48;;;0.30;99.90;;;;;;5488400;26;19998;-73
2024/04/23 02:24:17;;;;;;;11.50;10.50;;;0.20;99.90;;;;;;5488069;26;19998;-73
2024/04/23 02:26:44;;;;;;;11.70;10.57;;;0.20;99.90;;;;;;5488579;26;20013;-73
2024/04/23 02:29:11;;;;;;;9.13;6.18;;;0.20;99.90;;;;;;5487957;26;19998;-73
2024/04/23 02:31:38;;;;;;;11.82;8.18;;;0.20;99.90;;;;;;5488247;26;20017;-74
2024/04/23 02:34:05;;;;;;;11.50;10.60;;;0.10;99.90;;;;;;5486421;26;20005;-73
2024/04/23 02:36:32;;;;;;;10.75;9.80;;;0.10;99.90;;;;;;5488614;26;19994;-73
2024/04/23 02:38:59;;;;;;;9.07;8.20;;;0.10;99.90;;;;;;5486808;26;19994;-73
2024/04/23 02:41:26;;;;;;;7.68;6.35;;;0.10;99.90;;;;;;5517081;26;20006;-73
2024/04/23 02:43:53;;;;;;;7.85;7.05;;;0.10;99.90;;;;;;5486541;26;20099;-74
2024/04/23 02:46:21;;;;;;;8.93;8.02;;;0.00;99.90;;;;;;5486269;26;20006;-73
2024/04/23 02:48:48;;;;;;;10.25;9.35;;;0.00;99.90;;;;;;5516910;26;20004;-73
2024/04/23 02:51:15;;;;;;;11.55;10.52;;;0.00;99.90;;;;;;5487319;26;20006;-73
2024/04/23 02:53:42;;;;;;;8.35;7.47;;;0.00;99.90;;;;;;5487843;26;20026;-74
2024/04/23 02:56:09;;;;;;;10.15;7.95;;;0.00;99.90;;;;;;5487663;26;19998;-73
2024/04/23 02:58:36;;;;;;;11.27;10.20;;;0.00;99.90;;;;;;5516504;26;20052;-73
2024/04/23 03:01:03;;;;;;;9.73;8.75;;;0.00;99.90;;;;;;5503178;25;20015;-73
2024/04/23 03:03:30;;;;;;;9.60;7.20;;;-0.10;99.90;;;;;;5450309;26;19999;-73
2024/04/23 03:05:57;;;;;;;5.88;5.38;;;-0.10;99.90;;;;;;5418371;26;19999;-74
2024/04/23 03:08:24;;;;;;;9.02;7.35;;;-0.10;99.90;;;;;;5419617;26;20003;-73
2024/04/23 03:10:52;;;;;;;9.52;8.63;;;-0.10;99.90;;;;;;5479921;26;20056;-73
2024/04/23 03:13:19;;;;;;;10.32;9.32;;;-0.10;99.90;;;;;;5479620;26;20001;-74
2024/04/23 03:15:46;;;;;;;8.43;7.38;;;-0.10;99.90;;;;;;5449745;26;20007;-74
2024/04/23 03:18:13;;;;;;;13.38;9.98;;;-0.10;99.90;;;;;;5451222;26;19995;-73
2024/04/23 03:20:40;;;;;;;11.07;9.18;;;-0.10;99.90;;;;;;5479391;26;20365;-73
2024/04/23 03:23:07;;;;;;;8.00;7.22;;;-0.10;99.90;;;;;;5449622;26;20365;-73
2024/04/23 03:25:34;;;;;;;10.23;7.28;;;0.00;99.90;;;;;;5450996;26;20512;-73
2024/04/23 03:28:04;;;;;;;10.07;9.02;;;0.00;99.90;;;;;;5421528;26;19994;-73
2024/04/23 03:30:31;;;;;;;9.75;6.95;;;0.00;99.90;;;;;;5422462;26;20071;-73
2024/04/23 03:32:58;;;;;;;10.23;9.38;;;0.00;99.90;;;;;;5454585;26;19998;-73
2024/04/23 03:35:25;;;;;;;10.98;9.80;;;-0.10;99.90;;;;;;5452324;26;19998;-73
2024/04/23 03:37:52;;;;;;;10.98;9.90;;;-0.10;99.90;;;;;;5454208;26;20075;-73
2024/04/23 03:40:19;;;;;;;10.57;9.52;;;-0.10;99.90;;;;;;5452081;26;20003;-73
2024/04/23 03:42:46;;;;;;;10.60;6.50;;;-0.10;99.90;;;;;;5422804;26;20015;-73
2024/04/23 03:45:13;;;;;;;9.20;7.10;;;-0.20;99.90;;;;;;5454285;26;20075;-73
2024/04/23 03:47:40;;;;;;;8.77;7.95;;;-0.20;99.90;;;;;;5452349;26;20011;-73
2024/04/23 03:50:08;;;;;;;10.43;9.25;;;-0.30;99.90;;;;;;5452240;26;20063;-74
2024/04/23 03:52:35;;;;;;;11.07;9.98;;;-0.30;99.90;;;;;;5453965;26;20459;-73
2024/04/23 03:55:02;;;;;;;10.60;9.75;;;-0.30;99.90;;;;;;5454093;26;20110;-72
2024/04/23 03:57:29;;;;;;;9.20;7.63;;;-0.40;99.90;;;;;;5453857;26;20067;-74
2024/04/23 03:59:56;;;;;;;8.63;6.50;;;-0.40;99.90;;;;;;5452323;26;20007;-73
2024/04/23 04:07:55;;;;;;;7.15;6.45;;;-0.50;99.90;;;;;;5453854;26;20010;-73
2024/04/23 04:10:22;;;;;;;9.20;7.03;;;-0.50;99.90;;;;;;5453519;26;20003;-73
2024/04/23 04:12:49;;;;;;;9.75;6.93;;;-0.50;99.90;;;;;;5452211;26;20075;-73
2024/04/23 04:15:22;;;;;;;9.07;6.35;;;-0.60;99.90;;;;;;5453598;26;20003;-74
2024/04/23 04:17:49;;;;;;;9.43;8.50;;;-0.60;99.90;;;;;;5453655;26;20003;-73
2024/04/23 04:20:16;;;;;;;12.30;8.25;;;-0.60;99.90;;;;;;5482154;26;20009;-73
2024/04/23 04:22:43;;;;;;;9.48;8.68;;;-0.60;99.90;;;;;;5451625;26;19999;-73
2024/04/23 04:25:10;;;;;;;11.85;7.93;;;-0.60;99.90;;;;;;5451865;26;20131;-73
2024/04/23 04:27:37;;;;;;;10.02;8.80;;;-0.60;99.90;;;;;;5451567;26;20052;-73
2024/04/23 04:30:05;;;;;;;13.63;12.25;;;-0.60;99.90;;;;;;5452268;26;19995;-73
2024/04/23 04:32:32;;;;;;;13.05;9.90;;;-0.60;99.90;;;;;;5451888;26;20072;-73
2024/04/23 04:34:59;;;;;;;12.85;9.52;;;-0.60;99.90;;;;;;5422479;26;19995;-74
2024/04/23 04:37:33;;;;;;;13.98;9.88;;;-0.60;99.90;;;;;;5451349;26;20448;-73
2024/04/23 04:40:01;;;;;;;11.23;10.18;;;-0.60;99.90;;;;;;5450515;26;19994;-73
2024/04/23 04:42:28;;;;;;;9.68;7.50;;;-0.50;99.90;;;;;;5453151;26;20005;-73
2024/04/23 04:44:55;;;;;;;8.05;6.38;;;-0.50;99.90;;;;;;5421869;26;19994;-73
2024/04/23 04:47:22;;;;;;;10.18;8.40;;;-0.50;99.90;;;;;;5453295;26;20135;-73
2024/04/23 04:49:49;;;;;;;8.07;7.10;;;-0.50;99.90;;;;;;5451407;26;20075;-73
2024/04/23 04:52:16;;;;;;;11.23;8.18;;;-0.50;99.90;;;;;;5421839;26;20345;-73
2024/04/23 04:54:43;;;;;;;13.77;8.63;;;-0.40;99.90;;;;;;5451251;26;19999;-73
2024/04/23 04:57:10;;;;;;;12.23;10.88;;;-0.40;99.90;;;;;;5453128;26;19999;-73
2024/04/23 04:59:37;;;;;;;8.98;7.60;;;-0.40;99.90;;;;;;5451068;26;20003;-73
2024/04/23 05:02:04;;;;;;;12.93;9.30;;;-0.40;99.90;;;;;;5454878;26;20079;-73
2024/04/23 05:04:32;;;;;;;11.20;8.70;;;-0.30;99.90;;;;;;5451980;26;20075;-73
2024/04/23 05:06:59;;;;;;;11.15;10.00;;;-0.20;99.90;;;;;;5416520;26;20000;-73
2024/04/23 05:09:26;;;;;;;12.57;10.45;;;-0.20;99.90;;;;;;5415775;26;20006;-73
2024/04/23 05:11:53;;;;;;;13.05;9.55;;;-0.10;99.90;;;;;;5416169;26;20064;-73
2024/04/23 05:14:20;;;;;;;10.10;7.63;;;0.00;99.90;;;;;;5417220;26;20006;-73
2024/04/23 05:16:47;;;;;;;14.52;10.68;;;0.10;99.90;;;;;;5415271;26;20076;-73
2024/04/23 05:19:14;;;;;;;12.40;7.80;;;0.10;99.90;;;;;;5415754;26;20006;-73
2024/04/23 05:21:41;;;;;;;10.45;7.22;;;0.30;99.90;;;;;;5414982;26;20076;-73
2024/04/23 05:24:09;;;;;;;12.60;10.68;;;0.60;99.90;;;;;;5415294;26;19999;-73
2024/04/23 05:26:36;;;;;;;10.95;9.68;;;0.80;99.90;;;;;;5416676;26;20011;-73
2024/04/23 05:29:03;;;;;;;12.95;9.70;;;0.90;99.90;;;;;;5416943;26;20223;-73
2024/04/23 05:34:15;;;;;;;11.68;9.65;;;1.10;99.90;;;;;;5416978;26;20045;-73
2024/04/23 05:36:42;;;;;;;15.35;13.73;;;1.40;99.90;;;;;;5414755;26;20394;-73
2024/04/23 05:39:10;;;;;;;14.32;11.23;;;1.60;99.90;;;;;;5416839;26;20076;-73
2024/04/23 05:41:37;;;;;;;11.60;10.38;;;1.80;99.90;;;;;;5416429;26;20019;-73
2024/04/23 05:44:04;;;;;;;14.98;12.63;;;2.00;99.90;;;;;;5415084;26;20108;-74
2024/04/23 05:46:31;;;;;;;14.60;12.88;;;2.30;99.90;;;;;;5415013;26;20010;-74
2024/04/23 05:49:36;;;;;;;13.05;11.73;;;2.50;99.90;;;;;;5417183;26;20167;-74
2024/04/23 05:52:59;;;;;;;11.75;10.20;;;2.70;99.90;;;;;;5415366;26;20013;-74
2024/04/23 05:55:45;;;;;;;11.20;9.63;;;3.10;99.90;;;;;;5414990;26;20084;-74
2024/04/23 05:58:14;;;;;;;16.77;15.60;;;3.40;99.90;;;;;;5416971;26;19999;-74
2024/04/23 06:00:41;;;;;;;11.60;10.35;;;3.70;99.90;;;;;;5416552;26;19999;-73
2024/04/23 06:03:08;;;;;;;11.15;10.00;;;4.20;99.90;;;;;;5385043;26;20443;-73
2024/04/23 06:05:35;;;;;;;14.00;9.73;;;5.00;99.90;;;;;;5429094;26;20007;-73
2024/04/23 06:08:03;;;;;;;10.90;9.80;;;5.50;99.90;;;;;;5450648;26;19999;-73
2024/04/23 06:10:30;;;;;;;11.32;8.60;;;6.30;99.90;;;;;;5467379;26;20016;-73
2024/04/23 06:12:57;;;;;;;9.55;8.75;;;7.20;99.90;;;;;;5471910;26;20006;-73
2024/04/23 06:15:25;;;;;;;11.90;7.70;;;8.10;99.90;;;;;;5485897;26;20051;-73
2024/04/23 06:17:52;;;;;;;10.18;8.75;;;8.70;99.90;;;;;;5487924;26;20002;-73
2024/04/23 06:20:19;;;;;;;9.85;8.85;;;9.40;99.90;;;;;;5524954;25;20013;-73
2024/04/23 06:22:48;;;;;;;10.23;9.05;;;10.00;99.90;;;;;;5524832;25;20001;-73
2024/04/23 06:25:16;;;;;;;7.60;6.72;;;10.40;99.30;;;;;;5493230;26;20399;-74
2024/04/23 06:27:43;;;;;;;9.90;8.93;;;10.80;98.10;;;;;;5522978;26;20004;-74
2024/04/23 06:30:12;;;;;;;9.32;8.40;;;11.20;97.50;;;;;;5523193;26;20308;-73
2024/04/23 06:32:39;;;;;;;10.18;9.18;;;11.60;96.50;;;;;;5523368;26;20094;-74
2024/04/23 06:35:08;;;;;;;12.15;8.57;;;12.00;95.50;;;;;;5523278;26;20001;-73
2024/04/23 06:37:36;;;;;;;8.15;7.03;;;12.20;94.20;;;;;;5524938;25;20339;-73
2024/04/23 06:40:06;;;;;;;7.93;7.13;;;12.40;93.10;;;;;;5524807;25;20443;-73
2024/04/23 06:42:34;;;;;;;8.55;7.75;;;12.70;92.50;;;;;;5492567;26;19993;-73
2024/04/23 06:45:02;;;;;;;8.82;7.93;;;13.10;92.20;;;;;;5491430;26;19998;-74
2024/04/23 06:47:29;;;;;;;8.15;6.60;;;13.50;91.80;;;;;;5522629;26;20324;-74
2024/04/23 06:49:56;;;;;;;7.32;6.63;;;14.10;90.90;;;;;;5520007;26;20096;-74
2024/04/23 06:52:23;;;;;;;5.97;5.38;;;14.40;88.50;;;;;;5523435;25;20470;-74
2024/04/23 06:54:50;;;;;;;7.55;6.45;;;14.60;86.60;;;;;;5523154;25;19997;-74
2024/04/23 06:57:17;;;;;;;9.82;6.70;;;14.90;86.40;;;;;;5521711;26;19997;-74
2024/04/23 06:59:44;;;;;;;7.97;7.18;;;15.30;85.20;;;;;;5490667;26;19997;-74
2024/04/23 07:02:12;;;;;;;8.05;6.93;;;15.60;82.90;;;;;;5522201;25;20072;-73
2024/04/23 07:04:39;;;;;;;8.02;7.22;;;15.80;81.50;;;;;;5522711;26;19998;-74
2024/04/23 07:07:06;;;;;;;8.10;6.47;;;16.10;81.10;;;;;;5524818;25;20016;-74
2024/04/23 07:09:33;;;;;;;7.63;6.80;;;16.40;79.00;;;;;;5522879;26;19993;-74
2024/04/23 07:12:00;;;;;;;7.40;5.60;;;16.50;78.40;;;;;;5524206;25;20323;-74
2024/04/23 07:14:27;;;;;;;6.72;5.82;;;16.60;77.70;;;;;;5523031;26;20007;-73
2024/04/23 07:16:54;;;;;;;7.88;6.03;;;16.80;75.40;;;;;;5522441;26;19993;-73
2024/04/23 07:19:22;;;;;;;8.30;5.63;;;16.90;74.50;;;;;;5524837;25;19997;-74
2024/04/23 07:21:49;;;;;;;6.65;5.85;;;17.10;73.70;;;;;;5522845;26;20078;-74
2024/04/23 07:24:16;;;;;;;6.53;5.30;;;17.30;71.90;;;;;;5522789;26;20046;-74
2024/04/23 07:26:43;;;;;;;5.93;5.25;;;17.40;71.00;;;;;;5522549;26;20036;-74
2024/04/23 07:29:10;;;;;;;6.68;5.72;;;17.20;69.20;;;;;;5524004;25;20070;-74
2024/04/23 07:31:37;;;;;;;5.63;4.70;;;17.00;69.90;;;;;;5524195;25;19998;-74
2024/04/23 07:34:04;;;;;;;6.93;6.30;;;16.80;69.10;;;;;;5491289;26;20057;-74
2024/04/23 07:36:31;;;;;;;7.30;6.60;;;16.50;68.80;;;;;;5524036;25;20451;-74
2024/04/23 07:38:58;;;;;;;6.70;5.65;;;16.40;70.20;;;;;;5522080;26;19997;-74
2024/04/23 07:41:26;;;;;;;5.90;4.70;;;16.60;69.90;;;;;;5491407;26;19997;-74
2024/04/23 07:43:53;;;;;;;6.97;5.88;;;16.60;68.70;;;;;;5523395;25;20010;-74
2024/04/23 07:46:20;;;;;;;6.75;6.15;;;16.70;68.30;;;;;;5418260;26;20429;-74
2024/04/23 07:48:47;;;;;;;5.80;5.28;;;16.80;68.30;;;;;;5448811;26;19994;-74
2024/04/23 07:51:14;;;;;;;7.53;6.82;;;17.00;69.10;;;;;;5450514;26;19995;-75
2024/04/23 07:53:41;;;;;;;6.43;5.82;;;17.40;67.30;;;;;;5448989;26;20011;-74
2024/04/23 07:56:10;;;;;;;5.32;4.82;;;17.70;66.80;;;;;;5450398;26;20005;-74
2024/04/23 07:58:38;;;;;;;5.55;4.75;;;17.80;65.80;;;;;;5448706;26;20018;-74
2024/04/23 08:01:05;;;;;;;6.97;6.28;;;18.10;66.50;;;;;;5450237;26;19999;-74
2024/04/23 08:03:34;;;;;;;5.38;4.88;;;18.50;66.10;;;;;;5448790;26;20011;-74
2024/04/23 08:06:04;;;;;;;5.97;5.38;;;18.90;65.60;;;;;;5448142;26;20048;-74
2024/04/23 08:08:31;;;;;;;6.07;5.47;;;19.20;64.10;;;;;;5448362;26;19999;-74
2024/04/23 08:10:58;;;;;;;8.13;5.50;;;19.30;63.40;;;;;;5447957;26;19999;-74
2024/04/23 08:13:27;;;;;;;5.93;4.57;;;19.30;63.20;;;;;;5449419;26;20031;-74
2024/04/23 08:15:57;;;;;;;6.07;5.47;;;19.40;62.00;;;;;;5451508;26;19998;-74
2024/04/23 08:18:24;;;;;;;5.03;4.25;;;19.40;61.70;;;;;;5452302;26;20010;-74
2024/04/23 08:20:52;;;;;;;5.00;4.50;;;19.40;62.30;;;;;;5456632;26;20013;-74
2024/04/23 08:23:19;;;;;;;4.88;4.38;;;19.50;61.80;;;;;;5444426;26;20076;-74
2024/04/23 08:25:46;;;;;;;5.70;4.47;;;19.60;60.80;;;;;;5422023;26;20001;-74
2024/04/23 08:28:14;;;;;;;5.35;4.63;;;19.40;60.40;;;;;;5453899;26;20006;-75
2024/04/23 08:30:43;;;;;;;5.07;4.57;;;19.40;59.80;;;;;;5422250;26;20002;-74
2024/04/23 08:33:10;;;;;;;4.35;3.95;;;19.50;60.20;;;;;;5453503;26;20409;-74
2024/04/23 08:35:37;;;;;;;5.00;4.50;;;19.80;59.80;;;;;;5453836;26;19995;-75
2024/04/23 08:38:04;;;;;;;4.85;4.40;;;20.20;59.00;;;;;;5421698;26;20390;-74
2024/04/23 08:40:34;;;;;;;5.30;4.90;;;20.60;58.50;;;;;;5452129;26;19995;-74
2024/04/23 08:43:15;;;;;;;4.05;3.67;;;20.90;57.90;;;;;;5451174;26;20006;-75
2024/04/23 08:45:43;;;;;;;4.45;3.90;;;21.10;56.30;;;;;;5451926;26;20011;-75
2024/04/23 08:48:12;;;;;;;4.32;3.92;;;21.20;53.40;;;;;;5453215;26;20080;-74
2024/04/23 08:50:40;;;;;;;5.00;4.60;;;21.10;54.80;;;;;;5451433;26;20009;-75
2024/04/23 08:53:07;;;;;;;4.57;4.18;;;21.20;55.20;;;;;;5453220;26;19998;-75
2024/04/23 08:55:42;;;;;;;4.72;4.13;;;21.40;54.90;;;;;;5453405;26;19999;-75
2024/04/23 08:58:13;;;;;;;2.78;2.47;;;21.60;52.40;;;;;;5452940;26;19998;-75
2024/04/23 09:00:41;;;;;;;4.55;3.97;;;21.40;52.80;;;;;;5422971;26;19999;-75
2024/04/23 09:03:14;;;;;;;3.63;3.08;;;20.80;51.70;;;;;;5450998;26;20075;-75
2024/04/23 09:05:43;;;;;;;4.28;3.88;;;20.30;52.10;;;;;;5451806;26;20068;-75
2024/04/23 09:08:11;;;;;;;4.00;3.58;;;19.90;52.10;;;;;;5453318;26;20029;-75
2024/04/23 09:10:40;;;;;;;3.40;3.10;;;19.80;52.20;;;;;;5451911;26;20002;-75
2024/04/23 09:13:08;;;;;;;4.43;4.03;;;19.70;51.20;;;;;;5453112;26;20061;-75
2024/04/23 09:15:35;;;;;;;4.35;3.90;;;19.70;51.30;;;;;;5451452;26;20005;-75
2024/04/23 09:18:02;;;;;;;3.63;2.60;;;19.70;51.30;;;;;;5451026;26;20003;-75
2024/04/23 09:20:30;;;;;;;4.18;3.88;;;20.10;50.70;;;;;;5450966;26;19995;-75
2024/04/23 09:23:00;;;;;;;3.10;2.90;;;20.10;50.50;;;;;;5451062;26;20017;-75
2024/04/23 09:25:37;;;;;;;3.90;3.58;;;20.10;50.20;;;;;;5452107;26;20066;-75
2024/04/23 09:28:09;;;;;;;3.70;3.40;;;20.30;50.80;;;;;;5452636;26;20018;-75
2024/04/23 09:30:40;;;;;;;8.48;3.58;;;20.60;51.60;;;;;;5452859;26;19999;-74
2024/04/23 09:33:07;;;;;;;3.72;3.42;;;21.10;50.30;;;;;;5450738;26;20005;-75
2024/04/23 09:35:35;;;;;;;3.55;3.05;;;21.50;49.90;;;;;;5451137;26;20033;-75
2024/04/23 09:38:05;;;;;;;3.30;3.10;;;21.80;49.30;;;;;;5452552;26;20018;-75
2024/04/23 09:40:39;;;;;;;3.53;3.22;;;21.80;48.70;;;;;;5420991;26;20005;-75
2024/04/23 09:43:06;;;;;;;4.50;4.18;;;21.10;47.60;;;;;;5452593;26;20013;-75
2024/04/23 09:45:35;;;;;;;3.97;3.67;;;21.00;49.00;;;;;;5452621;26;20005;-75
2024/04/23 09:48:02;;;;;;;4.13;3.83;;;20.80;48.20;;;;;;5452576;26;19998;-75
2024/04/23 09:50:29;;;;;;;3.20;3.00;;;20.50;48.20;;;;;;5452658;26;20436;-75
2024/04/23 09:53:03;;;;;;;2.58;2.38;;;20.50;47.40;;;;;;5452312;26;20329;-75
2024/04/23 09:55:30;;;;;;;2.38;2.28;;;20.40;48.00;;;;;;5422092;26;20027;-75
2024/04/23 09:57:58;;;;;;;4.90;4.50;;;20.70;47.70;;;;;;5450668;26;19995;-75
2024/04/23 10:00:29;;;;;;;4.60;4.20;;;20.90;48.40;;;;;;5449828;26;20009;-75
2024/04/23 10:03:06;;;;;;;3.72;3.50;;;21.00;48.00;;;;;;5462672;26;20075;-75
2024/04/23 10:05:37;;;;;;;2.90;2.58;;;20.90;47.10;;;;;;5451540;26;20328;-75
2024/04/23 10:08:08;;;;;;;3.95;3.65;;;20.40;46.80;;;;;;5476565;26;19998;-75
2024/04/23 10:10:42;;;;;;;3.60;2.80;;;19.50;47.50;;;;;;5485485;26;20006;-75
2024/04/23 10:13:14;;;;;;;4.40;4.00;;;19.40;48.40;;;;;;5486950;26;20013;-74
2024/04/23 10:16:09;;;;;;;3.83;3.53;;;19.40;49.00;;;;;;5485445;26;20018;-75
2024/04/23 10:18:50;;;;;;;2.30;2.10;;;19.80;49.50;;;;;;5487146;26;20017;-75
2024/04/23 10:21:24;;;;;;;3.67;3.28;;;20.60;48.40;;;;;;5486623;26;19998;-75
2024/04/23 10:23:54;;;;;;;4.00;3.60;;;20.90;48.60;;;;;;5485555;26;19998;-76
2024/04/23 10:26:23;;;;;;;4.05;3.28;;;21.60;48.80;;;;;;5486681;26;20336;-75
2024/04/23 10:28:52;;;;;;;3.55;3.25;;;22.30;48.40;;;;;;5486791;26;20002;-75
2024/04/23 10:31:21;;;;;;;3.50;3.20;;;22.60;47.10;;;;;;5487961;26;19998;-75
2024/04/23 10:33:51;;;;;;;3.42;2.78;;;22.60;47.60;;;;;;5485466;26;20980;-75
2024/04/23 10:36:19;;;;;;;4.05;3.65;;;22.00;47.70;;;;;;5482508;26;19994;-75
2024/04/23 10:38:50;;;;;;;3.97;3.63;;;20.70;47.90;;;;;;5483003;26;20332;-73
2024/04/23 10:41:18;;;;;;;2.78;2.55;;;19.50;49.80;;;;;;5485212;26;20385;-74
2024/04/23 10:43:46;;;;;;;3.78;3.47;;;18.20;50.70;;;;;;5483920;26;20009;-74
2024/04/23 10:46:13;;;;;;;3.60;3.30;;;17.20;51.90;;;;;;5453592;26;20412;-74
2024/04/23 10:48:42;;;;;;;5.32;3.83;;;17.20;52.40;;;;;;5486511;26;20017;-74
2024/04/23 10:51:10;;;;;;;3.47;3.25;;;17.70;51.50;;;;;;5487928;26;20030;-74
2024/04/23 10:53:38;;;;;;;3.58;3.22;;;18.10;50.00;;;;;;5486384;26;19998;-74
2024/04/23 10:56:06;;;;;;;2.72;2.53;;;17.90;50.50;;;;;;5486238;26;20009;-74
2024/04/23 10:58:38;;;;;;;4.03;3.65;;;17.50;51.30;;;;;;5480441;26;19994;-74
2024/04/23 11:01:05;;;;;;;4.35;3.22;;;16.90;51.80;;;;;;5459693;26;20052;-74
2024/04/23 11:03:34;;;;;;;4.35;3.95;;;16.60;52.40;;;;;;5448305;26;20071;-74
2024/04/23 11:06:02;;;;;;;5.40;3.80;;;16.40;52.40;;;;;;5474197;26;20535;-74
2024/04/23 11:08:35;;;;;;;4.43;4.03;;;16.20;52.80;;;;;;5450102;26;20013;-74
2024/04/23 11:11:06;;;;;;;4.03;3.63;;;16.20;53.20;;;;;;5451433;26;20007;-74
2024/04/23 11:13:38;;;;;;;3.92;3.45;;;16.60;53.30;;;;;;5450942;26;19994;-73
2024/04/23 11:16:17;;;;;;;3.20;2.90;;;17.10;52.80;;;;;;5449783;26;20010;-74
2024/04/23 11:18:51;;;;;;;4.32;3.92;;;17.10;52.30;;;;;;5449507;26;20031;-73
2024/04/23 11:21:24;;;;;;;4.72;3.17;;;16.70;52.50;;;;;;5450905;26;20014;-74
2024/04/23 11:23:52;;;;;;;1.30;1.20;;;16.50;53.50;;;;;;5449501;26;20382;-74
2024/04/23 11:26:23;;;;;;;3.65;3.35;;;16.60;53.50;;;;;;5448949;26;20120;-74
2024/04/23 11:28:51;;;;;;;3.58;3.28;;;16.90;53.40;;;;;;5449436;26;20018;-74
2024/04/23 11:31:19;;;;;;;3.60;3.30;;;17.20;53.20;;;;;;5449011;26;20013;-74
2024/04/23 11:33:50;;;;;;;3.60;2.88;;;17.60;52.30;;;;;;5450919;26;20628;-74
2024/04/23 11:36:27;;;;;;;4.15;3.17;;;18.00;51.50;;;;;;5450998;26;20137;-74
2024/04/23 11:39:00;;;;;;;3.97;3.28;;;18.40;51.30;;;;;;5448895;26;20010;-74
2024/04/23 11:41:27;;;;;;;3.15;2.85;;;18.90;51.70;;;;;;5449168;26;20030;-74
2024/04/23 11:43:54;;;;;;;4.75;2.90;;;19.50;49.40;;;;;;5451303;26;19994;-74
2024/04/23 11:46:21;;;;;;;3.17;2.85;;;18.90;49.50;;;;;;5449060;26;19995;-74
2024/04/23 11:48:50;;;;;;;4.57;3.97;;;18.50;50.70;;;;;;5421205;26;20067;-74
2024/04/23 11:51:18;;;;;;;3.95;3.65;;;18.60;51.60;;;;;;5452703;26;20056;-73
2024/04/23 11:53:46;;;;;;;3.08;2.75;;;18.90;50.90;;;;;;5483509;26;19994;-74
2024/04/23 11:56:13;;;;;;;3.95;3.65;;;19.50;50.30;;;;;;5461376;26;20030;-74
2024/04/23 11:58:40;;;;;;;2.78;2.53;;;20.10;49.60;;;;;;5487882;26;20404;-75
2024/04/23 12:01:08;;;;;;;3.80;3.50;;;20.40;48.90;;;;;;5488354;26;19998;-74
2024/04/23 12:03:37;;;;;;;2.28;2.15;;;19.90;48.80;;;;;;5490200;26;19998;-74
2024/04/23 12:06:06;;;;;;;2.40;1.80;;;19.70;48.80;;;;;;5490277;26;20353;-74
2024/04/23 12:08:34;;;;;;;2.90;2.70;;;19.40;48.60;;;;;;5458135;26;19998;-74
2024/04/23 12:11:03;;;;;;;2.50;2.30;;;18.70;49.10;;;;;;5488691;26;20014;-74
2024/04/23 12:13:30;;;;;;;2.80;2.60;;;18.30;49.90;;;;;;5488017;26;19994;-74
2024/04/23 12:16:01;;;;;;;3.28;2.97;;;18.40;50.30;;;;;;5519193;26;20010;-74
2024/04/23 12:18:28;;;;;;;3.47;2.92;;;18.00;50.00;;;;;;5488153;26;20006;-74
2024/04/23 12:20:56;;;;;;;3.42;3.05;;;17.60;50.90;;;;;;5489202;26;19994;-74
2024/04/23 12:23:24;;;;;;;3.35;3.05;;;17.50;51.30;;;;;;5490687;26;20002;-74
2024/04/23 12:25:52;;;;;;;3.17;2.88;;;17.70;51.30;;;;;;5488673;26;20038;-74
2024/04/23 12:28:21;;;;;;;3.92;3.63;;;17.60;51.80;;;;;;5490273;26;19998;-74
2024/04/23 12:30:48;;;;;;;1.35;1.13;;;17.50;51.40;;;;;;5490379;26;20323;-74
2024/04/23 12:33:16;;;;;;;2.08;1.92;;;17.40;51.30;;;;;;5490443;26;20071;-74
2024/04/23 12:35:43;;;;;;;4.85;4.32;;;17.60;51.50;;;;;;5490342;26;20062;-74
2024/04/23 12:38:12;;;;;;;2.45;2.25;;;18.20;51.40;;;;;;5490187;26;20010;-74
2024/04/23 12:40:40;;;;;;;3.03;2.75;;;18.80;51.00;;;;;;5489853;26;20012;-74
2024/04/23 12:43:11;;;;;;;2.78;2.58;;;19.40;51.00;;;;;;5518585;26;20014;-74
2024/04/23 12:45:39;;;;;;;3.55;3.35;;;19.60;48.70;;;;;;5487874;26;20006;-74
2024/04/23 12:48:06;;;;;;;3.30;3.00;;;19.10;48.30;;;;;;5489919;26;20046;-74
2024/04/23 12:50:34;;;;;;;3.13;2.60;;;18.60;50.10;;;;;;5489412;26;19998;-74
2024/04/23 12:53:01;;;;;;;4.55;2.60;;;18.60;50.80;;;;;;5489755;26;20034;-74
2024/04/23 12:55:30;;;;;;;3.53;3.03;;;19.30;50.30;;;;;;5489808;26;20029;-74
2024/04/23 12:57:58;;;;;;;2.90;2.70;;;19.90;48.90;;;;;;5489644;26;20009;-74
2024/04/23 13:00:25;;;;;;;4.03;2.65;;;19.70;48.70;;;;;;5486774;26;20434;-74